Current Weather

Linguere

Linguere, Senegal (GOOG)

Report from: Wednesday, May 29, 2024 9:00 AM GMT
Current time: Wednesday, May 29, 2024 9:27 AM GMT

Nearby weather – Weather history – Daily summaries
Weather forecast

Temperature29.0°C (84.2°F)
Heat index31.0°C (87.8°F)
Dew point20.0°C (68.0°F)
Winds 8 kts (4.1 m/s, 9.2 mph) West-Northwest (300°)
Clouds Sky clear
Altimeter29.91 in.Hg (1013 mB)
Relative humidity58 %
Density altitude1,933 ft. (589 m)
Remarks Ceiling and visibility OK
Flight conditions Visual Meteorological Conditions
Raw dataGOOG 290900Z 30008KT CAVOK 29/20 Q1013
An error has occurred. This application may no longer respond until reloaded. Reload 🗙